createdAt,value
2023-03-21T00:00:42.111Z,66.63
2023-03-21T00:03:09.474Z,66.04
2023-03-21T00:05:45.698Z,65.82
2023-03-21T00:08:13.000Z,65.30
2023-03-21T00:10:43.772Z,65.26
2023-03-21T00:13:13.360Z,65.43
2023-03-21T00:18:42.470Z,64.69
2023-03-21T00:24:00.534Z,63.65
2023-03-21T00:26:27.833Z,64.00
2023-03-21T00:28:55.191Z,64.52
2023-03-21T00:31:22.461Z,65.06
2023-03-21T00:33:50.758Z,65.88
2023-03-21T00:36:18.039Z,66.81
2023-03-21T00:38:45.950Z,67.73
2023-03-21T00:41:26.130Z,68.52
2023-03-21T00:44:02.430Z,68.91
2023-03-21T00:46:39.861Z,68.63
2023-03-21T00:49:09.701Z,68.90
2023-03-21T00:51:36.964Z,69.46
2023-03-21T00:54:05.899Z,69.65
2023-03-21T00:56:33.099Z,68.82
2023-03-21T00:59:00.539Z,68.10
2023-03-21T01:01:31.958Z,67.97
2023-03-21T01:04:10.807Z,68.29
2023-03-21T01:06:39.562Z,67.88
2023-03-21T01:09:11.179Z,68.05
2023-03-21T01:11:38.478Z,68.08
2023-03-21T01:14:20.918Z,67.93
2023-03-21T01:16:51.182Z,68.42
2023-03-21T01:19:50.754Z,67.81
2023-03-21T01:22:08.658Z,67.65
2023-03-21T01:24:40.591Z,67.18
2023-03-21T01:27:10.963Z,66.73
2023-03-21T01:29:38.330Z,66.21
2023-03-21T01:32:06.120Z,66.13
2023-03-21T01:34:33.364Z,66.38
2023-03-21T01:37:01.491Z,66.22
2023-03-21T01:39:32.844Z,65.65
2023-03-21T01:42:00.324Z,65.18
2023-03-21T01:44:28.861Z,64.78
2023-03-21T01:47:09.723Z,64.75
2023-03-21T01:49:46.867Z,64.27
2023-03-21T01:52:38.717Z,63.61
2023-03-21T01:55:12.398Z,63.20
2023-03-21T01:58:04.718Z,62.66
2023-03-21T02:00:43.803Z,63.17
2023-03-21T02:03:35.396Z,62.33
2023-03-21T02:06:47.199Z,61.54
2023-03-21T02:09:40.861Z,61.47
2023-03-21T02:12:16.346Z,61.17
2023-03-21T02:14:45.553Z,61.41
2023-03-21T02:17:29.833Z,61.22
2023-03-21T02:20:22.200Z,59.94
2023-03-21T02:23:12.857Z,59.41
2023-03-21T02:25:58.388Z,59.80
2023-03-21T02:28:30.007Z,59.72
2023-03-21T02:31:15.901Z,59.50
2023-03-21T02:34:03.090Z,59.38
2023-03-21T02:36:59.242Z,58.59
2023-03-21T02:39:31.659Z,58.72
2023-03-21T02:42:22.080Z,59.12
2023-03-21T02:45:07.272Z,59.13
2023-03-21T02:47:47.710Z,58.04
2023-03-21T02:50:19.940Z,57.79
2023-03-21T02:52:48.048Z,57.77
2023-03-21T02:55:27.140Z,57.83
2023-03-21T02:58:11.781Z,57.87
2023-03-21T03:00:44.861Z,56.96
2023-03-21T03:03:28.077Z,57.40
2023-03-21T03:06:03.321Z,57.10
2023-03-21T03:08:52.913Z,56.30
2023-03-21T03:11:50.092Z,57.08
2023-03-21T03:14:56.445Z,56.85
2023-03-21T03:17:52.506Z,56.67
2023-03-21T03:20:31.122Z,56.61
2023-03-21T03:23:13.654Z,56.44
2023-03-21T03:25:52.560Z,56.04
2023-03-21T03:28:25.824Z,55.87
2023-03-21T03:31:07.990Z,55.99
2023-03-21T03:33:46.888Z,56.29
2023-03-21T03:36:30.319Z,56.06
2023-03-21T03:39:04.717Z,56.12
2023-03-21T03:42:02.894Z,56.57
2023-03-21T03:44:30.062Z,56.72
2023-03-21T03:47:07.120Z,55.97
2023-03-21T03:49:49.433Z,56.06
2023-03-21T03:52:27.976Z,55.99
2023-03-21T03:55:12.440Z,55.91
2023-03-21T03:57:42.400Z,56.60
2023-03-21T04:00:13.058Z,56.71
2023-03-21T04:02:48.734Z,56.56
2023-03-21T04:05:21.415Z,57.02
2023-03-21T04:07:51.113Z,57.20
2023-03-21T04:10:22.756Z,57.33
2023-03-21T04:12:50.416Z,57.76
2023-03-21T04:15:36.229Z,58.19
2023-03-21T04:18:11.666Z,58.42
2023-03-21T04:20:39.146Z,58.67
2023-03-21T04:23:08.722Z,58.29
2023-03-21T04:25:42.279Z,58.55
2023-03-21T04:28:15.073Z,58.32
2023-03-21T04:31:02.487Z,58.17
2023-03-21T04:33:41.537Z,57.84
2023-03-21T04:36:09.696Z,58.13
2023-03-21T04:38:38.115Z,57.73
2023-03-21T04:41:05.832Z,57.15
2023-03-21T04:43:33.049Z,57.22
2023-03-21T04:46:00.435Z,57.16
2023-03-21T04:48:28.156Z,57.72
2023-03-21T04:50:56.713Z,57.55
2023-03-21T04:53:24.057Z,57.88
2023-03-21T04:55:54.871Z,57.75
2023-03-21T04:58:22.696Z,57.91
2023-03-21T05:00:53.006Z,58.39
2023-03-21T05:03:21.979Z,58.61
2023-03-21T05:05:49.503Z,58.80
2023-03-21T05:08:19.048Z,58.92
2023-03-21T05:10:46.387Z,58.46
2023-03-21T05:13:13.769Z,59.44
2023-03-21T05:15:41.036Z,59.92
2023-03-21T05:18:11.212Z,59.85
2023-03-21T05:20:54.464Z,60.52
2023-03-21T05:23:23.625Z,60.53
2023-03-21T05:25:51.613Z,60.05
2023-03-21T05:28:31.806Z,60.81
2023-03-21T05:31:00.964Z,61.06
2023-03-21T05:33:28.280Z,61.98
2023-03-21T05:35:55.952Z,62.65
2023-03-21T05:38:25.416Z,63.00
2023-03-21T05:40:54.576Z,63.35
2023-03-21T05:43:21.889Z,62.52
2023-03-21T05:45:49.387Z,63.14
2023-03-21T05:48:18.542Z,64.37
2023-03-21T05:51:01.695Z,65.13
2023-03-21T05:53:29.392Z,65.45
2023-03-21T05:55:57.517Z,65.38
2023-03-21T05:58:41.089Z,65.47
2023-03-21T06:01:09.106Z,65.63
2023-03-21T06:03:38.839Z,65.80
2023-03-21T06:06:26.907Z,66.00
2023-03-21T06:08:56.843Z,66.17
2023-03-21T06:11:37.267Z,66.31
2023-03-21T06:14:20.787Z,66.07
2023-03-21T06:17:06.093Z,66.94
2023-03-21T06:19:35.019Z,67.07
2023-03-21T06:22:07.440Z,66.99
2023-03-21T06:24:37.644Z,67.17
2023-03-21T06:27:05.721Z,67.24
2023-03-21T06:29:46.347Z,67.26
2023-03-21T06:32:13.912Z,66.85
2023-03-21T06:34:41.863Z,67.15
2023-03-21T06:37:12.734Z,66.97
2023-03-21T06:39:40.534Z,66.53
2023-03-21T06:42:08.827Z,66.18
2023-03-21T06:44:36.283Z,66.55
2023-03-21T06:47:07.718Z,66.94
2023-03-21T06:49:35.529Z,66.90
2023-03-21T06:52:08.432Z,66.46
2023-03-21T06:54:36.310Z,66.84
2023-03-21T06:57:10.456Z,67.02
2023-03-21T06:59:41.635Z,67.50
2023-03-21T07:02:18.903Z,67.50
2023-03-21T07:04:59.279Z,67.91
2023-03-21T07:07:29.773Z,68.17
2023-03-21T07:09:57.230Z,68.27
2023-03-21T07:12:26.325Z,68.67
2023-03-21T07:15:12.241Z,68.13
2023-03-21T07:17:41.226Z,68.06
2023-03-21T07:20:09.154Z,68.01
2023-03-21T07:22:36.558Z,67.62
2023-03-21T07:25:05.642Z,67.65
2023-03-21T07:27:40.870Z,67.87
2023-03-21T07:30:10.236Z,67.31
2023-03-21T07:32:40.513Z,67.75
2023-03-21T07:35:11.688Z,67.45
2023-03-21T07:37:40.030Z,66.74
2023-03-21T07:40:12.376Z,66.70
2023-03-21T07:42:41.346Z,67.10
2023-03-21T07:45:11.137Z,66.27
2023-03-21T07:47:38.521Z,65.85
2023-03-21T07:50:06.323Z,65.87
2023-03-21T07:52:33.597Z,65.99
2023-03-21T07:55:00.924Z,66.33
2023-03-21T07:57:28.450Z,66.21
2023-03-21T07:59:55.743Z,65.76
2023-03-21T08:02:23.054Z,65.95
2023-03-21T08:04:50.736Z,66.64
2023-03-21T08:07:18.352Z,65.73
2023-03-21T08:09:45.822Z,65.19
2023-03-21T08:12:13.537Z,65.78
2023-03-21T08:14:40.788Z,65.92
2023-03-21T08:17:09.591Z,65.70
2023-03-21T08:19:37.609Z,66.87
2023-03-21T08:22:06.679Z,64.85
2023-03-21T08:24:34.276Z,64.77
2023-03-21T08:27:02.143Z,65.34
2023-03-21T08:29:29.440Z,65.20
2023-03-21T08:31:58.123Z,65.15
2023-03-21T08:34:26.996Z,65.29
2023-03-21T08:36:54.510Z,64.29
2023-03-21T08:39:21.945Z,64.89
2023-03-21T08:41:49.316Z,64.68
2023-03-21T08:44:17.144Z,64.90
2023-03-21T08:46:44.527Z,65.51
2023-03-21T08:49:12.508Z,64.60
2023-03-21T08:51:41.160Z,63.52
2023-03-21T08:54:08.792Z,63.53
2023-03-21T08:56:37.491Z,63.39
2023-03-21T08:59:04.932Z,62.73
2023-03-21T09:01:32.724Z,62.96
2023-03-21T09:04:00.281Z,62.59
2023-03-21T09:06:28.025Z,63.41
2023-03-21T09:08:55.355Z,63.80
2023-03-21T09:11:22.969Z,63.45
2023-03-21T09:13:50.194Z,62.87
2023-03-21T09:16:17.570Z,62.40
2023-03-21T09:18:45.330Z,62.40
2023-03-21T09:21:15.541Z,61.65
2023-03-21T09:23:44.896Z,61.38
2023-03-21T09:26:13.752Z,62.03
2023-03-21T09:28:41.071Z,62.72
2023-03-21T09:31:11.705Z,62.09
2023-03-21T09:33:42.464Z,62.91
2023-03-21T09:36:18.774Z,61.95
2023-03-21T09:38:47.351Z,61.80
2023-03-21T09:41:47.307Z,61.45
2023-03-21T09:44:56.481Z,61.75
2023-03-21T09:47:33.068Z,62.03
2023-03-21T09:50:13.595Z,62.00
2023-03-21T09:52:53.712Z,62.31
2023-03-21T09:55:26.280Z,62.82
2023-03-21T09:58:04.435Z,62.77
2023-03-21T10:00:40.219Z,62.21
2023-03-21T10:03:18.103Z,62.17
2023-03-21T10:05:49.139Z,62.19
2023-03-21T10:08:24.632Z,61.78
2023-03-21T10:10:54.731Z,62.96
2023-03-21T10:13:41.336Z,63.28
2023-03-21T10:16:16.928Z,63.16
2023-03-21T10:18:45.604Z,62.34
2023-03-21T10:21:47.460Z,62.05
2023-03-21T10:24:11.568Z,61.74
2023-03-21T10:26:38.680Z,61.30
2023-03-21T10:29:07.528Z,61.49
2023-03-21T10:31:35.837Z,61.15
2023-03-21T10:34:10.886Z,61.15
2023-03-21T10:36:38.586Z,61.36
2023-03-21T10:39:17.461Z,60.98
2023-03-21T10:41:44.920Z,60.44
2023-03-21T10:44:15.033Z,60.74
2023-03-21T10:46:53.340Z,61.23
2023-03-21T10:49:21.647Z,61.33
2023-03-21T10:51:57.409Z,61.74
2023-03-21T10:54:35.605Z,60.95
2023-03-21T10:57:08.934Z,60.79
2023-03-21T10:59:49.694Z,60.61
2023-03-21T11:02:24.920Z,61.10
2023-03-21T11:04:56.105Z,61.93
2023-03-21T11:07:27.219Z,61.91
2023-03-21T11:10:00.635Z,61.04
2023-03-21T11:12:40.806Z,61.17
2023-03-21T11:15:27.401Z,61.41
2023-03-21T11:17:55.100Z,60.88
2023-03-21T11:20:22.732Z,60.50
2023-03-21T11:22:54.696Z,60.25
2023-03-21T11:25:27.804Z,60.16
2023-03-21T11:27:56.102Z,59.55
2023-03-21T11:30:26.246Z,59.43
2023-03-21T11:32:57.440Z,59.61
2023-03-21T11:37:56.793Z,58.96
2023-03-21T11:40:27.730Z,58.75
2023-03-21T11:43:05.069Z,58.27
2023-03-21T11:45:35.537Z,57.78
2023-03-21T11:48:15.117Z,58.16
2023-03-21T11:50:47.763Z,59.08
2023-03-21T11:53:28.068Z,59.40
2023-03-21T11:56:04.581Z,58.49
2023-03-21T11:59:08.078Z,59.45
2023-03-21T12:01:44.563Z,59.46
2023-03-21T12:04:37.034Z,59.55
2023-03-21T12:07:28.357Z,59.76
2023-03-21T12:10:24.279Z,59.67
2023-03-21T12:13:03.548Z,61.31
2023-03-21T12:15:41.045Z,62.19
2023-03-21T12:18:11.525Z,63.63
2023-03-21T12:20:45.679Z,63.91
2023-03-21T12:23:36.965Z,64.11
2023-03-21T12:26:37.526Z,63.88
2023-03-21T12:29:22.756Z,64.03
2023-03-21T12:32:06.062Z,64.25
2023-03-21T12:34:58.665Z,64.70
2023-03-21T12:38:05.187Z,63.47
2023-03-21T12:40:55.757Z,62.75
2023-03-21T12:43:32.237Z,63.96
2023-03-21T12:46:11.120Z,64.12
2023-03-21T12:48:52.401Z,63.71
2023-03-21T12:51:23.750Z,63.59
2023-03-21T12:54:00.144Z,63.66
2023-03-21T12:56:44.518Z,63.90
2023-03-21T12:59:32.339Z,63.85
2023-03-21T13:02:02.950Z,62.93
2023-03-21T13:04:40.770Z,61.82
2023-03-21T13:07:11.739Z,61.64
2023-03-21T13:09:40.935Z,62.51
2023-03-21T13:12:32.459Z,62.14
2023-03-21T13:15:24.686Z,61.58
2023-03-21T13:18:04.965Z,61.10
2023-03-21T13:20:44.374Z,61.33
2023-03-21T13:23:13.541Z,60.22
2023-03-21T13:25:48.845Z,59.90
2023-03-21T13:28:20.760Z,60.11
2023-03-21T13:30:49.056Z,60.68
2023-03-21T13:33:24.002Z,60.29
2023-03-21T13:36:06.218Z,60.58
2023-03-21T13:38:35.510Z,60.05
2023-03-21T13:41:07.507Z,59.75
2023-03-21T13:43:55.006Z,59.55
2023-03-21T13:46:25.153Z,59.36
2023-03-21T13:48:58.460Z,59.81
2023-03-21T13:51:29.252Z,59.90
2023-03-21T13:54:03.019Z,59.95
2023-03-21T13:56:53.464Z,59.68
2023-03-21T13:59:32.912Z,58.80
2023-03-21T14:02:01.111Z,58.09
2023-03-21T14:04:41.899Z,58.72
2023-03-21T14:07:18.943Z,59.04
2023-03-21T14:09:48.125Z,59.06
2023-03-21T14:12:21.264Z,59.02
2023-03-21T14:14:55.203Z,59.94
2023-03-21T14:17:26.205Z,59.42
2023-03-21T14:19:55.800Z,59.53
2023-03-21T14:22:23.398Z,59.61
2023-03-21T14:25:00.612Z,59.60
2023-03-21T14:27:33.627Z,58.95
2023-03-21T14:30:02.000Z,58.64
2023-03-21T14:32:30.431Z,59.04
2023-03-21T14:35:00.521Z,59.25
2023-03-21T14:37:37.498Z,58.95
2023-03-21T14:40:27.334Z,59.15
2023-03-21T14:42:55.317Z,58.80
2023-03-21T14:45:26.810Z,59.13
2023-03-21T14:47:59.585Z,58.58
2023-03-21T14:50:36.816Z,58.20
2023-03-21T14:53:04.356Z,58.27
2023-03-21T14:55:32.048Z,58.50
2023-03-21T14:57:59.357Z,58.59
2023-03-21T15:00:30.679Z,59.00
2023-03-21T15:02:59.389Z,58.88
2023-03-21T15:05:30.108Z,59.02
2023-03-21T15:08:15.607Z,58.55
2023-03-21T15:11:05.998Z,59.16
2023-03-21T15:13:52.444Z,58.96
2023-03-21T15:16:19.908Z,59.12
2023-03-21T15:18:47.679Z,59.33
2023-03-21T15:21:19.858Z,57.88
2023-03-21T15:23:48.611Z,57.79
2023-03-21T15:26:18.161Z,57.63
2023-03-21T15:28:47.715Z,57.61
2023-03-21T15:31:19.833Z,57.31
2023-03-21T15:33:48.573Z,57.10
2023-03-21T15:36:26.150Z,56.36
2023-03-21T15:38:54.322Z,56.21
2023-03-21T15:41:21.518Z,55.76
2023-03-21T15:43:53.981Z,55.85
2023-03-21T15:46:33.610Z,55.36
2023-03-21T15:49:08.720Z,54.96
2023-03-21T15:51:36.486Z,55.93
2023-03-21T15:54:03.892Z,55.85
2023-03-21T15:56:34.771Z,56.15
2023-03-21T15:59:04.656Z,56.62
2023-03-21T16:01:38.861Z,55.92
2023-03-21T16:04:10.528Z,55.91
2023-03-21T16:06:39.657Z,55.77
2023-03-21T16:09:14.369Z,56.04
2023-03-21T16:11:43.633Z,55.38
2023-03-21T16:14:10.972Z,55.24
2023-03-21T16:16:38.362Z,55.18
2023-03-21T16:19:07.404Z,55.14
2023-03-21T16:21:38.136Z,55.41
2023-03-21T16:24:06.339Z,55.31
2023-03-21T16:26:37.465Z,55.62
2023-03-21T16:29:07.155Z,55.07
2023-03-21T16:31:37.302Z,55.05
2023-03-21T16:34:05.230Z,54.83
2023-03-21T16:36:40.181Z,55.55
2023-03-21T16:39:18.673Z,56.12
2023-03-21T16:41:46.669Z,56.33
2023-03-21T16:44:14.118Z,56.17
2023-03-21T16:46:41.384Z,56.73
2023-03-21T16:49:20.089Z,57.04
2023-03-21T16:51:48.815Z,58.12
2023-03-21T16:54:17.563Z,57.76
2023-03-21T16:56:49.502Z,58.14
2023-03-21T16:59:16.961Z,58.25
2023-03-21T17:01:46.306Z,58.82
2023-03-21T17:04:14.998Z,58.87
2023-03-21T17:06:51.129Z,59.74
2023-03-21T17:09:23.261Z,59.91
2023-03-21T17:11:51.872Z,61.11
2023-03-21T17:14:21.506Z,61.02
2023-03-21T17:16:49.254Z,60.68
2023-03-21T17:19:24.381Z,61.05
2023-03-21T17:21:51.697Z,61.12
2023-03-21T17:24:19.093Z,60.60
2023-03-21T17:26:46.432Z,61.56
2023-03-21T17:29:15.526Z,62.08
2023-03-21T17:31:47.287Z,62.56
2023-03-21T17:34:15.613Z,63.50
2023-03-21T17:36:44.515Z,63.50
2023-03-21T17:39:23.949Z,62.87
2023-03-21T17:41:52.268Z,63.00
2023-03-21T17:44:20.462Z,63.17
2023-03-21T17:46:51.046Z,63.53
2023-03-21T17:49:19.942Z,63.32
2023-03-21T17:51:47.355Z,63.94
2023-03-21T17:54:14.749Z,63.84
2023-03-21T17:56:42.154Z,64.16
2023-03-21T17:59:13.082Z,64.27
2023-03-21T18:01:41.471Z,64.78
2023-03-21T18:04:08.916Z,64.62
2023-03-21T18:06:37.439Z,64.52
2023-03-21T18:09:10.975Z,65.29
2023-03-21T18:11:39.293Z,65.79
2023-03-21T18:14:16.201Z,66.39
2023-03-21T18:16:44.593Z,66.61
2023-03-21T18:19:15.357Z,67.36
2023-03-21T18:21:45.281Z,67.71
2023-03-21T18:24:13.928Z,67.75
2023-03-21T18:26:41.761Z,67.98
2023-03-21T18:30:13.090Z,67.94
2023-03-21T18:32:06.820Z,67.86
2023-03-21T18:34:38.990Z,68.69
2023-03-21T18:37:08.426Z,69.04
2023-03-21T18:39:37.131Z,69.04
2023-03-21T18:42:06.595Z,69.35
2023-03-21T18:44:38.989Z,69.49
2023-03-21T18:47:07.839Z,70.19
2023-03-21T18:52:23.572Z,69.89
2023-03-21T18:54:50.844Z,69.88
2023-03-21T19:00:13.839Z,69.56
2023-03-21T19:02:46.716Z,69.11
2023-03-21T19:05:16.500Z,70.05
2023-03-21T19:07:43.881Z,69.06
2023-03-21T19:10:18.038Z,68.76
2023-03-21T19:12:45.916Z,68.58
2023-03-21T19:15:13.592Z,68.69
2023-03-21T19:20:28.833Z,69.33
2023-03-21T19:22:56.413Z,69.95
2023-03-21T19:25:23.794Z,69.40
2023-03-21T19:27:52.317Z,69.96
2023-03-21T19:30:19.765Z,69.61
2023-03-21T19:32:47.240Z,69.24
2023-03-21T19:35:14.967Z,70.08
2023-03-21T19:37:43.155Z,70.60
2023-03-21T19:40:11.248Z,70.71
2023-03-21T19:42:38.563Z,71.48
2023-03-21T19:45:06.320Z,71.36
2023-03-21T19:47:33.597Z,70.94
2023-03-21T19:50:47.257Z,70.55
2023-03-21T19:52:48.467Z,70.75
2023-03-21T19:55:16.357Z,70.66
2023-03-21T19:57:43.660Z,71.06
2023-03-21T20:00:11.551Z,70.59
2023-03-21T20:02:39.150Z,71.21
2023-03-21T20:05:08.118Z,71.29
2023-03-21T20:07:35.987Z,71.65
2023-03-21T20:10:04.560Z,72.10
2023-03-21T20:12:33.267Z,71.86
2023-03-21T20:15:16.096Z,71.36
2023-03-21T20:17:44.405Z,71.73
2023-03-21T20:20:15.417Z,71.81
2023-03-21T20:23:05.688Z,71.67
2023-03-21T20:25:33.243Z,71.93
2023-03-21T20:28:15.064Z,71.80
2023-03-21T20:30:53.005Z,72.28
2023-03-21T20:33:20.477Z,72.33
2023-03-21T20:38:37.133Z,72.99
2023-03-21T20:41:06.434Z,72.78
2023-03-21T20:44:24.460Z,72.17
2023-03-21T20:46:21.541Z,72.77
2023-03-21T20:48:49.637Z,72.79
2023-03-21T20:52:24.240Z,72.64
2023-03-21T20:54:05.198Z,72.76
2023-03-21T20:56:32.843Z,73.05
2023-03-21T20:59:14.985Z,73.17
2023-03-21T21:01:45.374Z,73.46
2023-03-21T21:04:19.212Z,73.29
2023-03-21T21:06:47.885Z,73.37
2023-03-21T21:09:16.047Z,74.12
2023-03-21T21:12:06.233Z,74.77
2023-03-21T21:14:30.668Z,74.28
2023-03-21T21:16:58.898Z,74.22
2023-03-21T21:19:27.160Z,74.25
2023-03-21T21:21:54.511Z,75.15
2023-03-21T21:24:21.794Z,75.98
2023-03-21T21:26:49.609Z,75.68
2023-03-21T21:29:17.722Z,75.50
2023-03-21T21:31:51.036Z,76.22
2023-03-21T21:34:20.006Z,76.74
2023-03-21T21:36:47.709Z,76.42
2023-03-21T21:39:15.695Z,76.70
2023-03-21T21:41:43.270Z,76.72
2023-03-21T21:44:11.053Z,77.23
2023-03-21T21:46:38.838Z,77.41
2023-03-21T21:49:06.641Z,77.82
2023-03-21T21:51:35.082Z,77.35
2023-03-21T21:54:03.948Z,76.95
2023-03-21T21:56:35.084Z,78.26
2023-03-21T21:59:03.870Z,77.93
2023-03-21T22:01:34.725Z,77.44
2023-03-21T22:04:08.463Z,77.48
2023-03-21T22:06:35.693Z,77.62
2023-03-21T22:09:06.963Z,78.18
2023-03-21T22:11:34.444Z,78.47
2023-03-21T22:14:02.188Z,78.54
2023-03-21T22:16:29.398Z,78.90
2023-03-21T22:18:56.742Z,79.28
2023-03-21T22:21:24.347Z,78.71
2023-03-21T22:23:51.673Z,78.92
2023-03-21T22:26:19.151Z,79.52
2023-03-21T22:28:46.520Z,79.77
2023-03-21T22:31:18.354Z,78.75
2023-03-21T22:33:46.064Z,77.98
2023-03-21T22:36:13.336Z,77.86
2023-03-21T22:38:42.027Z,78.86
2023-03-21T22:41:09.512Z,78.86
2023-03-21T22:43:36.887Z,78.78
2023-03-21T22:46:05.744Z,78.33
2023-03-21T22:48:33.106Z,79.42
2023-03-21T22:51:00.800Z,80.17
2023-03-21T22:53:28.483Z,79.87
2023-03-21T22:55:55.961Z,79.92
2023-03-21T22:58:23.705Z,79.56
2023-03-21T23:00:51.270Z,79.19
2023-03-21T23:03:19.057Z,78.19
2023-03-21T23:05:46.338Z,78.35
2023-03-21T23:08:13.621Z,77.74
2023-03-21T23:10:43.879Z,77.82
2023-03-21T23:13:11.875Z,78.55
2023-03-21T23:15:39.661Z,78.58
2023-03-21T23:18:07.030Z,78.78
2023-03-21T23:20:34.222Z,79.91
2023-03-21T23:23:01.824Z,79.70
2023-03-21T23:25:30.333Z,79.82
2023-03-21T23:27:57.649Z,79.03
2023-03-21T23:30:25.414Z,78.97
2023-03-21T23:32:52.693Z,78.93
2023-03-21T23:35:19.911Z,78.60
2023-03-21T23:37:53.169Z,77.96
2023-03-21T23:40:21.201Z,77.82
2023-03-21T23:42:48.618Z,77.83
2023-03-21T23:45:16.272Z,77.39
2023-03-21T23:47:43.930Z,76.97
2023-03-21T23:50:11.610Z,76.47
2023-03-21T23:52:41.667Z,76.61
2023-03-21T23:55:09.410Z,77.32
2023-03-21T23:57:38.265Z,77.18
